createdAt,value
2022-09-23T00:01:11.572Z,11.30
2022-09-23T00:06:22.623Z,11.30
2022-09-23T00:08:50.223Z,11.30
2022-09-23T00:11:25.859Z,11.30
2022-09-23T00:13:55.054Z,11.30
2022-09-23T00:16:31.135Z,11.30
2022-09-23T00:18:57.921Z,11.30
2022-09-23T00:21:25.219Z,11.20
2022-09-23T00:23:52.053Z,11.20
2022-09-23T00:26:21.730Z,11.20
2022-09-23T00:28:49.321Z,11.20
2022-09-23T00:31:22.102Z,11.20
2022-09-23T00:33:56.629Z,11.20
2022-09-23T00:36:23.618Z,11.10
2022-09-23T00:38:50.387Z,11.10
2022-09-23T00:41:17.424Z,11.10
2022-09-23T00:43:44.178Z,11.10
2022-09-23T00:46:37.008Z,11.00
2022-09-23T00:49:12.258Z,11.00
2022-09-23T00:51:44.056Z,11.00
2022-09-23T00:54:11.387Z,11.00
2022-09-23T00:56:39.587Z,10.90
2022-09-23T00:59:09.568Z,10.90
2022-09-23T01:01:37.546Z,10.90
2022-09-23T01:04:05.704Z,10.90
2022-09-23T01:06:32.862Z,10.90
2022-09-23T01:08:59.517Z,10.80
2022-09-23T01:11:40.079Z,10.80
2022-09-23T01:14:27.842Z,10.80
2022-09-23T01:17:03.882Z,10.80
2022-09-23T01:19:36.716Z,10.70
2022-09-23T01:22:32.632Z,10.70
2022-09-23T01:25:19.006Z,10.70
2022-09-23T01:27:45.609Z,10.60
2022-09-23T01:30:12.236Z,10.60
2022-09-23T01:32:38.868Z,10.60
2022-09-23T01:35:18.377Z,10.50
2022-09-23T01:37:57.041Z,10.50
2022-09-23T01:40:28.932Z,10.50
2022-09-23T01:43:08.619Z,10.50
2022-09-23T01:45:47.061Z,10.50
2022-09-23T01:48:28.746Z,10.50
2022-09-23T01:51:13.967Z,10.40
2022-09-23T01:53:45.488Z,10.40
2022-09-23T01:56:37.136Z,10.40
2022-09-23T01:59:21.457Z,10.40
2022-09-23T02:01:55.412Z,10.30
2022-09-23T02:04:39.493Z,10.30
2022-09-23T02:07:17.883Z,10.30
2022-09-23T02:09:50.734Z,10.30
2022-09-23T02:12:21.140Z,10.20
2022-09-23T02:14:58.371Z,10.20
2022-09-23T02:17:48.311Z,10.10
2022-09-23T02:20:20.776Z,10.00
2022-09-23T02:23:01.263Z,10.00
2022-09-23T02:25:39.731Z,9.90
2022-09-23T02:28:14.814Z,9.90
2022-09-23T02:30:49.304Z,9.90
2022-09-23T02:33:30.085Z,9.90
2022-09-23T02:36:29.097Z,9.90
2022-09-23T02:39:01.283Z,9.90
2022-09-23T02:41:34.642Z,9.80
2022-09-23T02:44:08.945Z,9.80
2022-09-23T02:46:37.111Z,9.80
2022-09-23T02:49:15.770Z,9.80
2022-09-23T02:51:42.711Z,9.80
2022-09-23T02:54:17.644Z,9.80
2022-09-23T02:56:44.305Z,9.80
2022-09-23T02:59:12.919Z,9.80
2022-09-23T03:01:58.344Z,9.70
2022-09-23T03:04:53.478Z,9.60
2022-09-23T03:07:38.227Z,9.70
2022-09-23T03:10:07.826Z,9.70
2022-09-23T03:12:53.193Z,9.70
2022-09-23T03:15:35.450Z,9.60
2022-09-23T03:18:08.482Z,9.60
2022-09-23T03:20:42.506Z,9.60
2022-09-23T03:23:13.462Z,9.60
2022-09-23T03:25:44.596Z,9.50
2022-09-23T03:28:12.508Z,9.50
2022-09-23T03:30:40.102Z,9.50
2022-09-23T03:33:12.422Z,9.60
2022-09-23T03:36:06.412Z,9.60
2022-09-23T03:38:37.939Z,9.60
2022-09-23T03:41:09.450Z,9.70
2022-09-23T03:43:38.843Z,9.70
2022-09-23T03:46:08.175Z,9.70
2022-09-23T03:48:34.884Z,9.70
2022-09-23T03:51:19.026Z,9.70
2022-09-23T03:53:45.658Z,9.70
2022-09-23T03:56:12.268Z,9.70
2022-09-23T03:58:38.876Z,9.70
2022-09-23T04:01:06.292Z,9.70
2022-09-23T04:03:32.965Z,9.70
2022-09-23T04:06:02.013Z,9.70
2022-09-23T04:08:28.613Z,9.70
2022-09-23T04:11:01.541Z,9.70
2022-09-23T04:13:29.333Z,9.70
2022-09-23T04:15:55.990Z,9.80
2022-09-23T04:18:23.241Z,9.70
2022-09-23T04:20:50.202Z,9.70
2022-09-23T04:23:16.818Z,9.70
2022-09-23T04:25:50.307Z,9.70
2022-09-23T04:28:17.038Z,9.70
2022-09-23T04:30:44.295Z,9.70
2022-09-23T04:33:11.352Z,9.70
2022-09-23T04:35:40.327Z,9.70
2022-09-23T04:38:07.489Z,9.70
2022-09-23T04:40:35.793Z,9.60
2022-09-23T04:43:02.357Z,9.60
2022-09-23T04:45:30.389Z,9.60
2022-09-23T04:47:58.380Z,9.60
2022-09-23T04:50:26.072Z,9.60
2022-09-23T04:52:53.250Z,9.60
2022-09-23T04:55:20.217Z,9.60
2022-09-23T04:57:46.991Z,9.60
2022-09-23T05:00:15.212Z,9.60
2022-09-23T05:02:50.410Z,9.60
2022-09-23T05:05:23.243Z,9.70
2022-09-23T05:07:51.104Z,9.60
2022-09-23T05:10:18.324Z,9.70
2022-09-23T05:12:44.998Z,9.70
2022-09-23T05:15:13.072Z,9.70
2022-09-23T05:17:39.758Z,9.70
2022-09-23T05:20:06.938Z,9.70
2022-09-23T05:22:33.590Z,9.70
2022-09-23T05:25:01.498Z,9.70
2022-09-23T05:27:28.359Z,9.70
2022-09-23T05:29:55.023Z,9.70
2022-09-23T05:32:22.111Z,9.60
2022-09-23T05:34:48.745Z,9.60
2022-09-23T05:37:15.494Z,9.60
2022-09-23T05:39:42.124Z,9.70
2022-09-23T05:42:09.266Z,9.70
2022-09-23T05:44:35.905Z,9.70
2022-09-23T05:47:02.721Z,9.80
2022-09-23T05:49:48.242Z,9.80
2022-09-23T05:52:17.922Z,9.90
2022-09-23T05:54:44.557Z,10.00
2022-09-23T05:57:11.854Z,10.10
2022-09-23T05:59:38.485Z,10.20
2022-09-23T06:02:05.463Z,10.30
2022-09-23T06:04:32.119Z,10.30
2022-09-23T06:07:03.042Z,10.40
2022-09-23T06:09:34.228Z,10.50
2022-09-23T06:12:04.036Z,10.60
2022-09-23T06:14:30.750Z,10.70
2022-09-23T06:16:57.373Z,10.80
2022-09-23T06:19:24.078Z,11.00
2022-09-23T06:21:50.769Z,11.10
2022-09-23T06:24:21.318Z,11.20
2022-09-23T06:26:49.631Z,11.20
2022-09-23T06:29:16.339Z,11.30
2022-09-23T06:31:43.342Z,11.30
2022-09-23T06:34:13.537Z,11.40
2022-09-23T06:36:46.241Z,11.50
2022-09-23T06:39:16.746Z,11.50
2022-09-23T06:41:45.142Z,11.70
2022-09-23T06:44:12.403Z,11.80
2022-09-23T06:46:39.144Z,12.00
2022-09-23T06:49:06.177Z,12.20
2022-09-23T06:51:32.871Z,12.50
2022-09-23T06:53:59.625Z,12.70
2022-09-23T06:56:26.388Z,12.90
2022-09-23T06:58:53.340Z,13.10
2022-09-23T07:01:20.218Z,13.30
2022-09-23T07:03:48.390Z,13.60
2022-09-23T07:06:16.038Z,13.90
2022-09-23T07:08:44.929Z,14.10
2022-09-23T07:11:13.205Z,14.40
2022-09-23T07:13:41.421Z,14.60
2022-09-23T07:16:09.198Z,14.90
2022-09-23T07:18:37.480Z,15.20
2022-09-23T07:21:14.113Z,15.60
2022-09-23T07:23:42.561Z,15.90
2022-09-23T07:26:09.314Z,16.30
2022-09-23T07:28:37.303Z,16.60
2022-09-23T07:31:06.840Z,16.90
2022-09-23T07:33:35.129Z,17.20
2022-09-23T07:36:14.001Z,17.50
2022-09-23T07:38:45.186Z,17.80
2022-09-23T07:41:15.268Z,18.00
2022-09-23T07:43:41.931Z,18.10
2022-09-23T07:46:12.001Z,18.20
2022-09-23T07:48:39.298Z,18.30
2022-09-23T07:51:16.202Z,18.50
2022-09-23T07:53:42.921Z,18.70
2022-09-23T07:56:09.944Z,18.80
2022-09-23T07:58:36.646Z,19.00
2022-09-23T08:01:09.034Z,19.30
2022-09-23T08:03:36.573Z,19.50
2022-09-23T08:06:08.749Z,19.60
2022-09-23T08:08:39.346Z,20.00
2022-09-23T08:11:08.590Z,20.50
2022-09-23T08:13:35.253Z,20.90
2022-09-23T08:16:02.464Z,21.30
2022-09-23T08:18:29.287Z,21.60
2022-09-23T08:20:55.926Z,22.00
2022-09-23T08:23:23.064Z,22.10
2022-09-23T08:25:58.879Z,22.30
2022-09-23T08:28:26.371Z,22.40
2022-09-23T08:30:53.256Z,22.50
2022-09-23T08:33:23.363Z,22.70
2022-09-23T08:35:51.336Z,22.90
2022-09-23T08:38:18.859Z,23.10
2022-09-23T08:40:49.431Z,23.20
2022-09-23T08:43:28.289Z,23.40
2022-09-23T08:45:59.571Z,23.60
2022-09-23T08:48:30.327Z,23.90
2022-09-23T08:51:04.414Z,24.30
2022-09-23T08:53:37.981Z,24.60
2022-09-23T08:56:12.696Z,25.20
2022-09-23T08:59:09.154Z,25.70
2022-09-23T09:01:51.783Z,26.10
2022-09-23T09:04:39.272Z,26.40
2022-09-23T09:07:36.131Z,26.70
2022-09-23T09:10:16.711Z,26.80
2022-09-23T09:12:46.302Z,27.00
2022-09-23T09:15:24.778Z,27.10
2022-09-23T09:17:54.584Z,27.10
2022-09-23T09:20:42.145Z,27.20
2022-09-23T09:23:22.758Z,27.30
2022-09-23T09:25:52.341Z,27.10
2022-09-23T09:28:24.599Z,27.10
2022-09-23T09:30:56.391Z,27.00
2022-09-23T09:33:47.177Z,26.80
2022-09-23T09:36:33.116Z,26.50
2022-09-23T09:38:59.896Z,26.20
2022-09-23T09:41:31.389Z,26.20
2022-09-23T09:44:03.396Z,26.30
2022-09-23T09:46:45.215Z,26.60
2022-09-23T09:49:41.074Z,26.80
2022-09-23T09:52:22.586Z,26.80
2022-09-23T09:54:51.061Z,26.90
2022-09-23T09:57:35.197Z,26.80
2022-09-23T10:00:21.337Z,26.60
2022-09-23T10:03:26.988Z,26.60
2022-09-23T10:05:55.406Z,26.40
2022-09-23T10:08:22.238Z,26.00
2022-09-23T10:10:59.872Z,25.40
2022-09-23T10:13:29.451Z,25.10
2022-09-23T10:15:58.393Z,25.10
2022-09-23T10:18:38.500Z,25.20
2022-09-23T10:21:13.232Z,25.60
2022-09-23T10:23:45.495Z,25.90
2022-09-23T10:26:15.078Z,26.10
2022-09-23T10:28:48.427Z,26.30
2022-09-23T10:31:24.605Z,26.30
2022-09-23T10:33:57.686Z,26.50
2022-09-23T10:36:24.812Z,26.60
2022-09-23T10:39:18.826Z,26.60
2022-09-23T10:42:10.154Z,26.50
2022-09-23T10:45:15.242Z,26.50
2022-09-23T10:48:06.677Z,26.70
2022-09-23T10:50:48.656Z,26.70
2022-09-23T10:53:24.289Z,26.90
2022-09-23T10:55:56.760Z,27.20
2022-09-23T10:58:54.782Z,27.30
2022-09-23T11:01:31.028Z,27.60
2022-09-23T11:04:41.664Z,27.80
2022-09-23T11:07:17.201Z,27.90
2022-09-23T11:10:02.567Z,28.20
2022-09-23T11:12:41.639Z,28.60
2022-09-23T11:15:17.707Z,28.90
2022-09-23T11:18:12.374Z,29.00
2022-09-23T11:21:02.302Z,28.70
2022-09-23T11:24:08.208Z,28.00
2022-09-23T11:26:41.338Z,27.60
2022-09-23T11:29:44.905Z,27.40
2022-09-23T11:32:31.771Z,27.30
2022-09-23T11:35:20.443Z,26.80
2022-09-23T11:37:51.461Z,25.90
2022-09-23T11:40:23.524Z,25.10
2022-09-23T11:43:07.253Z,24.60
2022-09-23T11:45:40.461Z,24.10
2022-09-23T11:48:13.680Z,23.70
2022-09-23T11:50:47.984Z,23.40
2022-09-23T11:53:31.294Z,23.20
2022-09-23T11:56:34.929Z,23.30
2022-09-23T11:59:40.619Z,23.50
2022-09-23T12:02:49.404Z,23.80
2022-09-23T12:05:24.042Z,24.00
2022-09-23T12:08:29.210Z,24.00
2022-09-23T12:11:14.497Z,23.90
2022-09-23T12:14:01.333Z,23.70
2022-09-23T12:16:42.430Z,23.80
2022-09-23T12:19:18.833Z,23.80
2022-09-23T12:22:04.064Z,23.70
2022-09-23T12:24:55.744Z,23.50
2022-09-23T12:27:30.070Z,23.30
2022-09-23T12:30:01.312Z,23.20
2022-09-23T12:32:28.568Z,23.20
2022-09-23T12:34:55.834Z,23.40
2022-09-23T12:37:31.647Z,23.50
2022-09-23T12:40:16.935Z,23.60
2022-09-23T12:42:46.927Z,23.70
2022-09-23T12:45:32.709Z,23.80
2022-09-23T12:48:04.913Z,23.80
2022-09-23T12:50:48.197Z,23.60
2022-09-23T12:53:33.309Z,23.70
2022-09-23T12:56:00.721Z,24.00
2022-09-23T12:58:42.716Z,24.20
2022-09-23T13:01:15.514Z,24.20
2022-09-23T13:04:05.088Z,24.10
2022-09-23T13:06:51.720Z,24.10
2022-09-23T13:09:25.571Z,24.10
2022-09-23T13:11:53.305Z,24.10
2022-09-23T13:14:27.366Z,24.20
2022-09-23T13:16:58.194Z,24.30
2022-09-23T13:19:27.802Z,24.30
2022-09-23T13:21:54.394Z,24.20
2022-09-23T13:24:40.730Z,23.90
2022-09-23T13:27:33.210Z,23.60
2022-09-23T13:30:14.547Z,23.20
2022-09-23T13:32:47.250Z,23.00
2022-09-23T13:35:18.729Z,22.70
2022-09-23T13:37:49.808Z,22.40
2022-09-23T13:40:21.086Z,22.30
2022-09-23T13:42:52.882Z,22.30
2022-09-23T13:45:22.406Z,22.30
2022-09-23T13:47:51.417Z,22.30
2022-09-23T13:50:21.144Z,22.20
2022-09-23T13:52:59.653Z,22.30
2022-09-23T13:55:31.214Z,22.20
2022-09-23T13:58:13.290Z,22.20
2022-09-23T14:00:40.215Z,22.30
2022-09-23T14:03:37.032Z,22.30
2022-09-23T14:06:12.918Z,22.30
2022-09-23T14:08:43.801Z,22.30
2022-09-23T14:11:16.278Z,22.30
2022-09-23T14:13:44.448Z,22.20
2022-09-23T14:16:14.840Z,22.10
2022-09-23T14:18:45.565Z,22.10
2022-09-23T14:21:29.223Z,22.00
2022-09-23T14:23:56.017Z,21.90
2022-09-23T14:26:24.028Z,21.70
2022-09-23T14:28:51.771Z,21.60
2022-09-23T14:31:18.630Z,21.60
2022-09-23T14:33:46.804Z,21.50
2022-09-23T14:36:36.177Z,21.40
2022-09-23T14:39:09.539Z,21.30
2022-09-23T14:41:42.415Z,21.40
2022-09-23T14:44:24.987Z,21.40
2022-09-23T14:46:57.467Z,21.40
2022-09-23T14:49:24.921Z,21.40
2022-09-23T14:52:03.151Z,21.20
2022-09-23T14:54:33.598Z,21.10
2022-09-23T14:57:01.577Z,21.00
2022-09-23T14:59:36.824Z,20.90
2022-09-23T15:02:34.049Z,20.90
2022-09-23T15:05:20.135Z,20.80
2022-09-23T15:07:52.979Z,20.80
2022-09-23T15:10:33.046Z,20.70
2022-09-23T15:13:09.070Z,20.60
2022-09-23T15:15:36.307Z,20.60
2022-09-23T15:18:17.277Z,20.50
2022-09-23T15:20:54.804Z,20.40
2022-09-23T15:23:46.423Z,20.40
2022-09-23T15:26:20.079Z,20.40
2022-09-23T15:28:47.934Z,20.30
2022-09-23T15:31:16.449Z,20.30
2022-09-23T15:33:50.539Z,20.30
2022-09-23T15:36:28.491Z,20.20
2022-09-23T15:38:57.228Z,20.10
2022-09-23T15:41:24.397Z,20.10
2022-09-23T15:43:51.472Z,20.00
2022-09-23T15:46:25.103Z,20.00
2022-09-23T15:49:14.482Z,19.90
2022-09-23T15:51:42.898Z,19.80
2022-09-23T15:54:12.400Z,19.70
2022-09-23T15:56:39.704Z,19.60
2022-09-23T15:59:06.463Z,19.60
2022-09-23T16:01:36.446Z,19.50
2022-09-23T16:04:04.452Z,19.50
2022-09-23T16:06:31.889Z,19.40
2022-09-23T16:08:58.766Z,19.40
2022-09-23T16:11:30.102Z,19.40
2022-09-23T16:13:56.973Z,19.40
2022-09-23T16:16:23.984Z,19.30
2022-09-23T16:18:53.346Z,19.30
2022-09-23T16:21:27.757Z,19.30
2022-09-23T16:23:55.365Z,19.30
2022-09-23T16:26:25.511Z,19.20
2022-09-23T16:28:54.462Z,19.20
2022-09-23T16:31:25.216Z,19.20
2022-09-23T16:33:53.366Z,19.20
2022-09-23T16:36:28.817Z,19.20
2022-09-23T16:38:55.749Z,19.20
2022-09-23T16:41:23.479Z,19.10
2022-09-23T16:43:50.912Z,19.10
2022-09-23T16:46:18.884Z,19.00
2022-09-23T16:48:52.150Z,19.00
2022-09-23T16:51:30.646Z,18.90
2022-09-23T16:53:59.067Z,18.80
2022-09-23T16:56:28.983Z,18.70
2022-09-23T16:58:56.308Z,18.60
2022-09-23T17:01:47.044Z,18.50
2022-09-23T17:04:15.225Z,18.50
2022-09-23T17:06:50.448Z,18.50
2022-09-23T17:09:25.599Z,18.50
2022-09-23T17:12:08.978Z,18.50
2022-09-23T17:14:35.613Z,18.50
2022-09-23T17:17:04.168Z,18.50
2022-09-23T17:19:30.963Z,18.60
2022-09-23T17:21:57.572Z,18.60
2022-09-23T17:24:24.226Z,18.60
2022-09-23T17:26:53.257Z,18.60
2022-09-23T17:29:20.459Z,18.60
2022-09-23T17:31:47.177Z,18.50
2022-09-23T17:34:13.889Z,18.50
2022-09-23T17:36:40.624Z,18.40
2022-09-23T17:39:07.335Z,18.40
2022-09-23T17:41:34.192Z,18.30
2022-09-23T17:44:01.008Z,18.30
2022-09-23T17:46:29.997Z,18.20
2022-09-23T17:48:57.214Z,18.20
2022-09-23T17:51:25.398Z,18.10
2022-09-23T17:53:52.132Z,18.10
2022-09-23T17:56:20.121Z,18.10
2022-09-23T17:58:48.717Z,18.00
2022-09-23T18:01:18.795Z,18.00
2022-09-23T18:03:46.338Z,18.00
2022-09-23T18:06:21.325Z,17.90
2022-09-23T18:08:49.886Z,17.90
2022-09-23T18:11:24.155Z,17.80
2022-09-23T18:13:54.982Z,17.70
2022-09-23T18:16:24.508Z,17.70
2022-09-23T18:18:56.586Z,17.60
2022-09-23T18:21:25.885Z,17.50
2022-09-23T18:23:52.601Z,17.50
2022-09-23T18:26:22.119Z,17.50
2022-09-23T18:28:49.735Z,17.50
2022-09-23T18:31:16.687Z,17.40
2022-09-23T18:33:43.404Z,17.40
2022-09-23T18:36:10.239Z,17.40
2022-09-23T18:38:36.950Z,17.40
2022-09-23T18:41:03.792Z,17.30
2022-09-23T18:43:40.747Z,17.30
2022-09-23T18:46:17.766Z,17.30
2022-09-23T18:49:04.175Z,17.20
2022-09-23T18:51:32.369Z,17.20
2022-09-23T18:54:01.434Z,17.10
2022-09-23T18:56:33.632Z,17.10
2022-09-23T18:59:00.698Z,17.00
2022-09-23T19:01:27.451Z,17.00
2022-09-23T19:03:55.453Z,17.00
2022-09-23T19:06:22.854Z,16.90
2022-09-23T19:08:54.348Z,16.90
2022-09-23T19:11:25.102Z,16.90
2022-09-23T19:13:56.216Z,16.80
2022-09-23T19:16:24.309Z,16.80
2022-09-23T19:18:51.943Z,16.70
2022-09-23T19:21:20.926Z,16.70
2022-09-23T19:23:51.728Z,16.60
2022-09-23T19:26:20.680Z,16.60
2022-09-23T19:28:49.081Z,16.60
2022-09-23T19:31:22.885Z,16.50
2022-09-23T19:33:58.697Z,16.50
2022-09-23T19:36:37.585Z,16.40
2022-09-23T19:39:15.447Z,16.40
2022-09-23T19:41:42.097Z,16.40
2022-09-23T19:44:08.935Z,16.30
2022-09-23T19:46:37.709Z,16.30
2022-09-23T19:49:06.227Z,16.30
2022-09-23T19:51:36.937Z,16.20
2022-09-23T19:54:05.188Z,16.20
2022-09-23T19:56:33.189Z,16.10
2022-09-23T19:59:00.648Z,16.10
2022-09-23T20:01:29.355Z,16.10
2022-09-23T20:03:56.355Z,16.00
2022-09-23T20:06:23.269Z,16.00
2022-09-23T20:08:50.603Z,16.00
2022-09-23T20:11:22.575Z,15.90
2022-09-23T20:13:59.397Z,15.90
2022-09-23T20:16:28.048Z,15.90
2022-09-23T20:18:59.617Z,15.90
2022-09-23T20:21:27.186Z,15.80
2022-09-23T20:23:53.828Z,15.80
2022-09-23T20:26:39.284Z,15.80
2022-09-23T20:29:06.036Z,15.80
2022-09-23T20:31:34.461Z,15.70
2022-09-23T20:34:05.442Z,15.70
2022-09-23T20:36:33.295Z,15.70
2022-09-23T20:39:02.117Z,15.60
2022-09-23T20:41:31.221Z,15.60
2022-09-23T20:44:02.235Z,15.60
2022-09-23T20:46:29.369Z,15.50
2022-09-23T20:48:56.919Z,15.50
2022-09-23T20:51:24.724Z,15.50
2022-09-23T20:53:52.827Z,15.50
2022-09-23T20:56:21.097Z,15.40
2022-09-23T20:58:48.606Z,15.40
2022-09-23T21:01:15.739Z,15.40
2022-09-23T21:03:44.610Z,15.50
2022-09-23T21:06:13.773Z,15.40
2022-09-23T21:08:41.336Z,15.40
2022-09-23T21:11:10.788Z,15.40
2022-09-23T21:13:38.335Z,15.30
2022-09-23T21:16:10.569Z,15.30
2022-09-23T21:18:38.361Z,15.30
2022-09-23T21:21:06.369Z,15.20
2022-09-23T21:23:35.700Z,15.20
2022-09-23T21:26:07.587Z,15.20
2022-09-23T21:28:36.088Z,15.10
2022-09-23T21:31:05.339Z,15.10
2022-09-23T21:33:32.921Z,15.10
2022-09-23T21:36:05.990Z,15.00
2022-09-23T21:38:37.535Z,15.00
2022-09-23T21:41:06.986Z,14.90
2022-09-23T21:43:35.937Z,14.90
2022-09-23T21:46:04.926Z,14.90
2022-09-23T21:48:33.584Z,14.80
2022-09-23T21:51:05.718Z,14.70
2022-09-23T21:53:34.840Z,14.60
2022-09-23T21:56:10.036Z,14.50
2022-09-23T21:58:38.314Z,14.40
2022-09-23T22:01:12.366Z,14.40
2022-09-23T22:03:39.449Z,14.30
2022-09-23T22:06:10.250Z,14.30
2022-09-23T22:08:39.995Z,14.30
2022-09-23T22:11:08.328Z,14.20
2022-09-23T22:13:35.018Z,14.20
2022-09-23T22:16:05.102Z,14.20
2022-09-23T22:18:32.262Z,14.10
2022-09-23T22:20:59.181Z,14.20
2022-09-23T22:23:26.127Z,14.10
2022-09-23T22:26:02.118Z,14.10
2022-09-23T22:28:50.290Z,14.10
2022-09-23T22:31:35.617Z,14.10
2022-09-23T22:34:02.295Z,14.10
2022-09-23T22:36:28.920Z,14.10
2022-09-23T22:38:59.010Z,14.20
2022-09-23T22:41:26.286Z,14.10
2022-09-23T22:43:53.783Z,14.10
2022-09-23T22:46:22.691Z,14.10
2022-09-23T22:48:53.168Z,14.10
2022-09-23T22:51:23.146Z,14.10
2022-09-23T22:53:51.453Z,14.00
2022-09-23T22:56:19.781Z,14.00
2022-09-23T22:58:47.781Z,14.00
2022-09-23T23:01:14.526Z,14.00
2022-09-23T23:03:41.725Z,14.00
2022-09-23T23:06:09.774Z,14.00
2022-09-23T23:08:37.077Z,14.00
2022-09-23T23:11:07.183Z,14.00
2022-09-23T23:13:34.216Z,14.00
2022-09-23T23:16:08.043Z,14.00
2022-09-23T23:18:38.783Z,14.00
2022-09-23T23:21:14.882Z,13.90
2022-09-23T23:23:43.856Z,14.00
2022-09-23T23:26:11.950Z,14.00
2022-09-23T23:28:40.065Z,14.00
2022-09-23T23:31:08.821Z,14.00
2022-09-23T23:33:36.450Z,14.00
2022-09-23T23:36:04.447Z,14.00
2022-09-23T23:38:33.615Z,14.00
2022-09-23T23:41:09.074Z,14.00
2022-09-23T23:43:35.714Z,13.90
2022-09-23T23:46:02.479Z,13.90
2022-09-23T23:48:29.245Z,13.90
2022-09-23T23:50:58.209Z,13.90
2022-09-23T23:53:36.259Z,13.80
2022-09-23T23:56:05.267Z,13.80
2022-09-23T23:58:32.258Z,13.80
